Portada
METAR-TAF:

METAR-TAF

Aeroports :

Reyes, Bolívia

latitud: 14-19S, longitud: 067-23W, altitud: 140 m

Observació

L'informe es va fer fa 10 hores i 34 minuts, a les 22:00 UTC
Vent calma
Temperatura 26°C
Humitat 89%
Pressió 1012 hPa
Visibilitat 10 km o més
Núvols disperses a una alçada de 4500 ft
Cel cobert a una alçada de 20000 ft

METAR: SLRY 152200Z 00000KT 9999 SCT045 OVC200 26/24 Q1012

Hora: 04:34 (08:34 UTC)


TAF: manca

Observacions i pronòstics meteorològics de més de 4000 aeroports (METAR i TAF).

Les estacions disponibles són els punts grocs i vermells al mapa.

Posi el ratolí al punt desitjat per veure el nom de l'estació.

Feu clic per veure les observacions i els pronòstics meteorològics.

Per canviar el mapa: feu clic els botons verds amb una creu de color negre per apropar; al botó verd amb un guió per allunyar la imatge; o en les fletxes verdes per a mapes adjacents.


METAR-TAF: